Time;durP1;ratioP1;P1;durP2;ratioP2;P2;SDS_P1;SDS_P2;PMS_P1;PMS_P2;Temp;Humidity;BMP_temperature;BMP_pressure;BME280_temperature;BME280_humidity;BME280_pressure;Samples;Min_cycle;Max_cycle;Signal;HPM_P1;HPM_P2
2021/01/01 00:05:39;;;;;;;14.15;8.98;;;;;;;;;;5100392;28;20030;-84
2021/01/01 00:08:05;;;;;;;16.60;8.00;;;;;;;;;;5097076;28;20060;-85
2021/01/01 00:10:31;;;;;;;11.48;6.43;;;;;;;;;;5093964;28;20048;-85
2021/01/01 00:12:58;;;;;;;15.32;9.23;;;;;;;;;;5096887;28;20499;-84
2021/01/01 00:15:24;;;;;;;11.73;8.00;;;;;;;;;;5096507;28;20430;-84
2021/01/01 00:17:50;;;;;;;11.52;7.32;;;;;;;;;;5097744;28;20480;-84
2021/01/01 00:20:16;;;;;;;10.02;5.85;;;;;;;;;;5096421;28;20078;-84
2021/01/01 00:22:43;;;;;;;5.72;3.55;;;;;;;;;;5097772;28;20040;-84
2021/01/01 00:25:10;;;;;;;10.02;5.95;;;;;;;;;;5096485;28;20040;-84
2021/01/01 00:27:37;;;;;;;8.32;5.10;;;;;;;;;;5097883;28;20040;-84
2021/01/01 00:30:04;;;;;;;7.97;4.28;;;;;;;;;;5097736;28;20043;-84
2021/01/01 00:32:30;;;;;;;7.40;3.72;;;;;;;;;;5097971;28;20044;-84
2021/01/01 00:34:57;;;;;;;6.68;3.60;;;;;;;;;;5099150;28;20344;-84
2021/01/01 00:37:23;;;;;;;8.13;4.05;;;;;;;;;;5096802;28;20044;-84
2021/01/01 00:39:50;;;;;;;8.70;4.65;;;;;;;;;;5098150;28;20051;-84
2021/01/01 00:42:16;;;;;;;9.98;4.43;;;;;;;;;;5098559;28;20341;-84
2021/01/01 00:44:42;;;;;;;8.25;4.53;;;;;;;;;;5098215;28;20047;-84
2021/01/01 00:47:09;;;;;;;6.40;3.70;;;;;;;;;;5096625;28;20480;-84
2021/01/01 00:49:35;;;;;;;10.77;4.22;;;;;;;;;;5096350;28;20048;-85
2021/01/01 00:52:02;;;;;;;7.13;3.80;;;;;;;;;;5096605;28;20118;-84
2021/01/01 00:54:28;;;;;;;6.90;4.00;;;;;;;;;;5100526;28;20047;-84
2021/01/01 00:56:55;;;;;;;6.32;4.00;;;;;;;;;;5101043;28;20051;-84
2021/01/01 00:59:21;;;;;;;6.88;4.10;;;;;;;;;;5100287;28;20051;-84
2021/01/01 01:01:47;;;;;;;6.35;3.40;;;;;;;;;;5102789;28;20043;-84
2021/01/01 01:04:13;;;;;;;6.93;3.83;;;;;;;;;;5101180;28;20048;-84
2021/01/01 01:06:39;;;;;;;8.18;4.03;;;;;;;;;;5102259;28;20040;-84
2021/01/01 01:09:05;;;;;;;7.88;4.47;;;;;;;;;;5101411;28;20426;-84
2021/01/01 01:11:32;;;;;;;11.43;5.18;;;;;;;;;;5103301;28;20369;-84
2021/01/01 01:14:00;;;;;;;10.85;6.20;;;;;;;;;;5103628;28;20048;-84
2021/01/01 01:16:27;;;;;;;12.82;6.95;;;;;;;;;;5102098;28;20103;-84
2021/01/01 01:18:53;;;;;;;13.65;7.60;;;;;;;;;;5103236;28;20040;-84
2021/01/01 01:21:20;;;;;;;16.27;8.27;;;;;;;;;;5103976;28;20044;-84
2021/01/01 01:23:46;;;;;;;17.27;10.10;;;;;;;;;;5104404;28;20048;-84
2021/01/01 01:26:12;;;;;;;32.13;14.55;;;;;;;;;;5101376;28;20044;-84
2021/01/01 01:28:38;;;;;;;25.45;12.68;;;;;;;;;;5101597;28;20040;-84
2021/01/01 01:31:06;;;;;;;20.35;10.20;;;;;;;;;;5102809;28;20456;-85
2021/01/01 01:33:32;;;;;;;22.67;12.40;;;;;;;;;;5101346;28;20079;-85
2021/01/01 01:35:58;;;;;;;22.27;12.00;;;;;;;;;;5083632;28;20044;-84
2021/01/01 01:38:24;;;;;;;22.55;12.10;;;;;;;;;;5098555;28;20040;-85
2021/01/01 01:40:51;;;;;;;21.75;11.90;;;;;;;;;;5099886;28;20048;-85
2021/01/01 01:43:17;;;;;;;20.00;10.88;;;;;;;;;;5100603;28;20051;-85
2021/01/01 01:45:44;;;;;;;20.40;10.65;;;;;;;;;;5100758;28;20036;-85
2021/01/01 01:48:13;;;;;;;22.23;10.85;;;;;;;;;;5102178;28;20039;-84
2021/01/01 01:50:39;;;;;;;22.35;11.80;;;;;;;;;;5100717;28;20036;-84
2021/01/01 01:53:06;;;;;;;18.92;11.27;;;;;;;;;;5098558;28;20044;-84
2021/01/01 01:55:32;;;;;;;17.70;10.20;;;;;;;;;;5100744;28;20056;-85
2021/01/01 01:57:58;;;;;;;18.63;10.80;;;;;;;;;;5081087;28;20047;-85
2021/01/01 02:03:05;;;;;;;19.95;11.02;;;;;;;;;;5082494;28;20076;-85
2021/01/01 02:05:32;;;;;;;25.33;11.10;;;;;;;;;;5097267;28;20056;-84
2021/01/01 02:07:58;;;;;;;22.00;10.43;;;;;;;;;;5100939;28;20161;-85
2021/01/01 02:10:25;;;;;;;20.80;9.93;;;;;;;;;;5099017;28;20093;-85
2021/01/01 02:12:51;;;;;;;17.30;8.98;;;;;;;;;;5099326;28;20044;-85
2021/01/01 02:15:17;;;;;;;14.77;7.65;;;;;;;;;;5097506;28;20055;-84
2021/01/01 02:17:43;;;;;;;10.55;6.05;;;;;;;;;;5097981;28;20043;-84
2021/01/01 02:20:10;;;;;;;9.65;5.53;;;;;;;;;;5098358;28;20142;-84
2021/01/01 02:22:37;;;;;;;11.00;6.75;;;;;;;;;;5099404;28;20044;-84
2021/01/01 02:25:05;;;;;;;11.57;6.97;;;;;;;;;;5098452;28;20040;-84
2021/01/01 02:27:31;;;;;;;12.25;6.57;;;;;;;;;;5098514;28;20479;-84
2021/01/01 02:29:57;;;;;;;12.00;6.40;;;;;;;;;;5097432;28;20056;-87
2021/01/01 02:32:23;;;;;;;12.85;7.15;;;;;;;;;;5099138;28;20048;-85
2021/01/01 02:34:49;;;;;;;11.02;6.40;;;;;;;;;;5097296;28;20043;-85
2021/01/01 02:37:16;;;;;;;8.57;5.85;;;;;;;;;;5097617;28;20050;-85
2021/01/01 02:39:43;;;;;;;10.95;5.93;;;;;;;;;;5097010;28;20480;-84
2021/01/01 02:42:09;;;;;;;12.15;6.32;;;;;;;;;;5098520;28;20472;-84
2021/01/01 02:44:35;;;;;;;8.70;5.07;;;;;;;;;;5098308;28;20040;-84
2021/01/01 02:47:02;;;;;;;11.00;6.38;;;;;;;;;;5097270;28;20052;-84
2021/01/01 02:49:28;;;;;;;11.05;5.93;;;;;;;;;;5099010;28;20101;-84
2021/01/01 02:51:54;;;;;;;10.68;5.28;;;;;;;;;;5097071;28;20040;-84
2021/01/01 02:54:20;;;;;;;11.98;6.93;;;;;;;;;;5098700;28;20075;-85
2021/01/01 02:56:47;;;;;;;12.98;6.43;;;;;;;;;;5097808;28;20043;-84
2021/01/01 02:59:13;;;;;;;10.30;5.43;;;;;;;;;;5098142;28;20043;-84
2021/01/01 03:01:39;;;;;;;11.55;5.70;;;;;;;;;;5098885;28;20046;-85
2021/01/01 03:04:06;;;;;;;9.88;5.40;;;;;;;;;;5097249;28;20130;-85
2021/01/01 03:06:31;;;;;;;11.35;6.68;;;;;;;;;;5098101;28;20055;-85
2021/01/01 03:08:58;;;;;;;10.95;5.57;;;;;;;;;;5097092;28;20122;-84
2021/01/01 03:11:24;;;;;;;12.23;5.93;;;;;;;;;;5098862;28;20044;-84
2021/01/01 03:13:51;;;;;;;10.80;6.75;;;;;;;;;;5096237;28;20051;-84
2021/01/01 03:16:17;;;;;;;13.30;7.20;;;;;;;;;;5098223;28;20044;-84
2021/01/01 03:18:43;;;;;;;10.88;6.15;;;;;;;;;;5096294;28;20105;-83
2021/01/01 03:21:09;;;;;;;24.00;13.27;;;;;;;;;;5096794;28;20070;-84
2021/01/01 03:23:35;;;;;;;23.58;14.35;;;;;;;;;;5096513;28;20035;-84
2021/01/01 03:26:01;;;;;;;22.70;13.85;;;;;;;;;;5098218;28;20132;-85
2021/01/01 03:28:27;;;;;;;23.77;14.10;;;;;;;;;;5095932;28;20431;-85
2021/01/01 03:30:54;;;;;;;26.98;15.57;;;;;;;;;;5097495;28;20039;-84
2021/01/01 03:33:20;;;;;;;23.85;13.80;;;;;;;;;;5097914;28;20040;-84
2021/01/01 03:35:46;;;;;;;25.80;13.70;;;;;;;;;;5096384;28;20044;-84
2021/01/01 03:38:12;;;;;;;26.08;14.68;;;;;;;;;;5095656;28;20137;-84
2021/01/01 03:40:38;;;;;;;23.42;14.00;;;;;;;;;;5096334;28;20044;-84
2021/01/01 03:43:04;;;;;;;25.67;15.05;;;;;;;;;;5080624;28;20080;-85
2021/01/01 03:45:31;;;;;;;24.77;15.73;;;;;;;;;;5097366;28;20089;-85
2021/01/01 03:47:58;;;;;;;23.25;13.50;;;;;;;;;;5098277;28;20047;-85
2021/01/01 03:50:24;;;;;;;23.35;14.38;;;;;;;;;;5098135;28;20052;-85
2021/01/01 03:52:50;;;;;;;30.52;15.00;;;;;;;;;;5096651;28;20055;-85
2021/01/01 03:55:16;;;;;;;28.17;15.70;;;;;;;;;;5098079;28;20499;-84
2021/01/01 03:57:42;;;;;;;36.47;17.45;;;;;;;;;;5097461;28;20051;-84
2021/01/01 04:00:09;;;;;;;27.25;14.70;;;;;;;;;;5097487;28;20044;-84
2021/01/01 04:02:35;;;;;;;28.38;15.18;;;;;;;;;;5096100;28;20056;-84
2021/01/01 04:05:02;;;;;;;32.28;15.90;;;;;;;;;;5079208;28;20044;-84
2021/01/01 04:07:28;;;;;;;33.75;16.48;;;;;;;;;;5096167;28;20044;-84
2021/01/01 04:09:55;;;;;;;29.70;15.35;;;;;;;;;;5096254;28;20070;-84
2021/01/01 04:12:21;;;;;;;35.65;19.10;;;;;;;;;;5095497;28;20468;-84
2021/01/01 04:14:47;;;;;;;37.05;19.38;;;;;;;;;;5095366;28;20048;-84
2021/01/01 04:17:13;;;;;;;38.22;21.23;;;;;;;;;;5095412;28;20122;-84
2021/01/01 04:19:39;;;;;;;32.28;17.85;;;;;;;;;;5095517;28;20491;-84
2021/01/01 04:22:06;;;;;;;25.52;14.02;;;;;;;;;;5095417;28;20472;-84
2021/01/01 04:24:32;;;;;;;21.00;12.98;;;;;;;;;;5097070;28;20044;-84
2021/01/01 04:26:58;;;;;;;19.35;12.23;;;;;;;;;;5097261;28;20051;-84
2021/01/01 04:29:24;;;;;;;26.73;14.10;;;;;;;;;;5097279;28;20067;-84
2021/01/01 04:31:50;;;;;;;24.75;13.48;;;;;;;;;;5095164;28;20041;-84
2021/01/01 04:34:16;;;;;;;19.92;12.32;;;;;;;;;;5096728;28;20051;-84
2021/01/01 04:36:42;;;;;;;22.20;12.90;;;;;;;;;;5096481;28;20044;-84
2021/01/01 04:39:09;;;;;;;18.92;10.23;;;;;;;;;;5095131;28;20040;-84
2021/01/01 04:41:36;;;;;;;17.13;9.23;;;;;;;;;;5078888;28;20068;-84
2021/01/01 04:44:04;;;;;;;12.00;7.45;;;;;;;;;;5097127;28;20052;-84
2021/01/01 04:46:35;;;;;;;16.75;9.05;;;;;;;;;;5097298;28;20423;-84
2021/01/01 04:49:02;;;;;;;12.93;6.85;;;;;;;;;;5098080;28;20044;-84
2021/01/01 04:51:28;;;;;;;12.75;6.80;;;;;;;;;;5097295;28;20047;-84
2021/01/01 04:53:56;;;;;;;13.05;7.35;;;;;;;;;;5095513;28;20122;-84
2021/01/01 04:56:23;;;;;;;13.02;7.43;;;;;;;;;;5097705;28;20048;-85
2021/01/01 04:58:49;;;;;;;14.48;6.97;;;;;;;;;;5095877;28;20388;-84
2021/01/01 05:01:15;;;;;;;8.90;5.65;;;;;;;;;;5095368;28;20048;-84
2021/01/01 05:03:42;;;;;;;13.98;7.03;;;;;;;;;;5098171;28;20044;-84
2021/01/01 05:06:08;;;;;;;11.70;7.70;;;;;;;;;;5097001;28;20048;-84
2021/01/01 05:08:34;;;;;;;12.93;6.50;;;;;;;;;;5097220;28;20085;-84
2021/01/01 05:11:06;;;;;;;10.15;6.35;;;;;;;;;;5098233;28;20372;-84
2021/01/01 05:13:33;;;;;;;11.52;6.28;;;;;;;;;;5096895;28;20048;-84
2021/01/01 05:16:00;;;;;;;11.90;6.93;;;;;;;;;;5098152;28;20098;-84
2021/01/01 05:18:27;;;;;;;11.75;6.60;;;;;;;;;;5097282;28;20036;-84
2021/01/01 05:20:56;;;;;;;11.07;6.50;;;;;;;;;;5097073;28;20070;-84
2021/01/01 05:23:23;;;;;;;11.20;6.45;;;;;;;;;;5095713;28;20059;-84
2021/01/01 05:26:05;;;;;;;11.15;6.22;;;;;;;;;;5097904;28;20051;-84
2021/01/01 05:28:42;;;;;;;12.15;6.65;;;;;;;;;;5097574;28;20047;-84
2021/01/01 05:31:12;;;;;;;12.60;6.50;;;;;;;;;;5097958;28;20104;-84
2021/01/01 05:33:39;;;;;;;14.07;7.32;;;;;;;;;;5095753;28;20079;-84
2021/01/01 05:36:07;;;;;;;10.80;6.68;;;;;;;;;;5097953;28;20380;-84
2021/01/01 05:38:36;;;;;;;12.35;6.70;;;;;;;;;;5096331;28;20047;-84
2021/01/01 05:41:02;;;;;;;16.60;11.40;;;;;;;;;;5096593;28;20476;-84
2021/01/01 05:43:28;;;;;;;20.65;12.88;;;;;;;;;;5083533;28;20415;-84
2021/01/01 05:46:07;;;;;;;12.82;7.53;;;;;;;;;;5082794;28;20079;-84
2021/01/01 05:48:33;;;;;;;9.38;5.75;;;;;;;;;;5100099;28;20047;-84
2021/01/01 05:51:05;;;;;;;11.65;6.85;;;;;;;;;;5100713;28;20055;-84
2021/01/01 05:53:31;;;;;;;11.02;6.78;;;;;;;;;;5101461;28;20097;-84
2021/01/01 05:56:06;;;;;;;14.13;7.97;;;;;;;;;;5101376;28;20044;-84
2021/01/01 05:58:32;;;;;;;11.82;7.43;;;;;;;;;;5101913;28;20044;-84
2021/01/01 06:00:59;;;;;;;11.57;7.03;;;;;;;;;;5101462;28;20055;-84
2021/01/01 06:03:27;;;;;;;13.70;7.75;;;;;;;;;;5101024;28;20043;-84
2021/01/01 06:05:55;;;;;;;13.88;7.75;;;;;;;;;;5101531;28;20376;-85
2021/01/01 06:08:24;;;;;;;13.55;8.73;;;;;;;;;;5100240;28;20379;-84
2021/01/01 06:10:51;;;;;;;15.20;9.55;;;;;;;;;;5100683;28;20093;-84
2021/01/01 06:13:19;;;;;;;14.63;9.35;;;;;;;;;;5099436;28;20498;-84
2021/01/01 06:15:56;;;;;;;14.43;8.52;;;;;;;;;;5101777;28;20411;-84
2021/01/01 06:18:26;;;;;;;13.98;7.88;;;;;;;;;;5101651;28;20051;-84
2021/01/01 06:20:57;;;;;;;16.83;9.00;;;;;;;;;;5101600;28;20052;-84
2021/01/01 06:23:31;;;;;;;25.90;14.70;;;;;;;;;;5100220;28;20044;-84
2021/01/01 06:25:58;;;;;;;22.88;14.50;;;;;;;;;;5099772;28;20082;-84
2021/01/01 06:28:25;;;;;;;23.23;13.02;;;;;;;;;;5101830;28;20040;-84
2021/01/01 06:30:51;;;;;;;22.67;13.60;;;;;;;;;;5101977;28;20058;-85
2021/01/01 06:33:17;;;;;;;16.38;9.95;;;;;;;;;;5101615;28;20044;-85
2021/01/01 06:35:44;;;;;;;16.17;8.75;;;;;;;;;;5083953;28;20040;-84
2021/01/01 06:38:10;;;;;;;14.82;9.27;;;;;;;;;;5102500;28;20040;-85
2021/01/01 06:40:38;;;;;;;14.15;8.35;;;;;;;;;;5084256;28;20093;-85
2021/01/01 06:43:04;;;;;;;14.02;7.88;;;;;;;;;;5083047;28;20395;-85
2021/01/01 06:45:39;;;;;;;12.00;7.63;;;;;;;;;;5101030;28;20046;-84
2021/01/01 06:48:06;;;;;;;14.55;9.35;;;;;;;;;;5101917;28;20471;-84
2021/01/01 06:50:34;;;;;;;12.70;8.68;;;;;;;;;;5102215;28;20492;-84
2021/01/01 06:53:03;;;;;;;14.80;8.70;;;;;;;;;;5102226;28;20442;-84
2021/01/01 06:55:33;;;;;;;15.77;10.10;;;;;;;;;;5101505;28;20050;-84
2021/01/01 06:57:59;;;;;;;15.43;9.05;;;;;;;;;;5102781;28;20036;-84
2021/01/01 07:00:53;;;;;;;14.73;9.15;;;;;;;;;;5100311;28;20086;-84
2021/01/01 07:03:33;;;;;;;14.52;8.93;;;;;;;;;;5100920;28;20036;-84
2021/01/01 07:06:33;;;;;;;18.42;9.30;;;;;;;;;;5102783;28;20097;-84
2021/01/01 07:09:00;;;;;;;19.70;9.57;;;;;;;;;;5102676;28;20040;-84
2021/01/01 07:11:34;;;;;;;49.05;15.68;;;;;;;;;;5102155;28;20436;-85
2021/01/01 07:14:05;;;;;;;39.42;13.27;;;;;;;;;;5103257;28;20414;-85
2021/01/01 07:16:33;;;;;;;38.35;15.27;;;;;;;;;;5102279;28;20044;-84
2021/01/01 07:18:59;;;;;;;31.08;12.60;;;;;;;;;;5102107;28;20039;-85
2021/01/01 07:21:25;;;;;;;25.20;13.85;;;;;;;;;;5101714;28;20048;-85
2021/01/01 07:23:51;;;;;;;23.88;15.18;;;;;;;;;;5102773;28;20082;-85
2021/01/01 07:26:18;;;;;;;23.20;14.73;;;;;;;;;;5101624;28;20054;-85
2021/01/01 07:28:46;;;;;;;21.77;12.02;;;;;;;;;;5103208;28;20044;-85
2021/01/01 07:31:13;;;;;;;20.25;11.75;;;;;;;;;;5102570;28;20047;-84
2021/01/01 07:33:39;;;;;;;13.43;8.45;;;;;;;;;;5100695;28;20067;-85
2021/01/01 07:36:08;;;;;;;14.80;8.55;;;;;;;;;;5101126;28;20094;-85
2021/01/01 07:38:36;;;;;;;20.40;11.90;;;;;;;;;;5100944;28;20036;-85
2021/01/01 07:41:02;;;;;;;17.30;11.48;;;;;;;;;;5101009;28;20120;-85
2021/01/01 07:43:29;;;;;;;15.43;7.82;;;;;;;;;;5102710;28;20044;-85
2021/01/01 07:45:56;;;;;;;13.68;7.53;;;;;;;;;;5085560;28;20372;-85
2021/01/01 07:48:22;;;;;;;15.88;9.63;;;;;;;;;;5103717;28;20048;-85
2021/01/01 07:50:48;;;;;;;16.75;9.50;;;;;;;;;;5103974;28;20050;-85
2021/01/01 07:53:14;;;;;;;13.73;7.88;;;;;;;;;;5102889;28;20044;-85
2021/01/01 07:55:42;;;;;;;12.25;6.63;;;;;;;;;;5104732;28;20047;-85
2021/01/01 07:58:10;;;;;;;15.05;8.73;;;;;;;;;;5113536;28;20055;-84
2021/01/01 08:00:39;;;;;;;14.15;10.25;;;;;;;;;;5113579;28;20040;-85
2021/01/01 08:03:06;;;;;;;16.23;9.82;;;;;;;;;;5111496;28;20048;-84
2021/01/01 08:05:33;;;;;;;14.93;9.20;;;;;;;;;;5094622;28;20052;-85
2021/01/01 08:08:11;;;;;;;17.17;8.70;;;;;;;;;;5094919;28;20047;-85
2021/01/01 08:10:37;;;;;;;12.27;8.57;;;;;;;;;;5095544;28;20071;-85
2021/01/01 08:13:03;;;;;;;13.60;8.20;;;;;;;;;;5095539;28;20048;-85
2021/01/01 08:15:30;;;;;;;13.75;7.50;;;;;;;;;;5094108;28;20056;-85
2021/01/01 08:17:58;;;;;;;12.60;8.02;;;;;;;;;;5094343;28;20051;-85
2021/01/01 08:20:24;;;;;;;14.88;8.45;;;;;;;;;;5092831;28;20036;-85
2021/01/01 08:22:51;;;;;;;13.07;7.75;;;;;;;;;;5094740;28;20040;-84
2021/01/01 08:25:18;;;;;;;10.70;6.80;;;;;;;;;;5094017;28;20127;-84
2021/01/01 08:27:46;;;;;;;11.65;7.50;;;;;;;;;;5075441;28;20394;-84
2021/01/01 08:30:14;;;;;;;14.85;8.52;;;;;;;;;;5093256;28;20083;-85
2021/01/01 08:32:40;;;;;;;12.13;7.60;;;;;;;;;;5093762;28;20440;-84
2021/01/01 08:35:10;;;;;;;15.18;9.57;;;;;;;;;;5095108;28;20048;-84
2021/01/01 08:37:36;;;;;;;22.42;13.43;;;;;;;;;;5077098;28;20044;-84
2021/01/01 08:40:04;;;;;;;21.88;15.15;;;;;;;;;;5094758;28;20044;-84
2021/01/01 08:42:34;;;;;;;32.90;16.60;;;;;;;;;;5094877;28;20089;-84
2021/01/01 08:45:00;;;;;;;25.65;14.40;;;;;;;;;;5095363;28;20538;-84
2021/01/01 08:47:37;;;;;;;31.63;18.58;;;;;;;;;;5094004;28;20384;-84
2021/01/01 08:50:04;;;;;;;35.17;21.75;;;;;;;;;;5096467;28;20040;-84
2021/01/01 08:52:32;;;;;;;25.63;17.17;;;;;;;;;;5096454;28;20048;-84
2021/01/01 08:54:57;;;;;;;25.27;14.77;;;;;;;;;;5079936;28;20048;-83
2021/01/01 08:57:27;;;;;;;18.90;12.07;;;;;;;;;;5096957;28;20044;-84
2021/01/01 09:00:00;;;;;;;16.30;10.38;;;;;;;;;;5096354;28;20051;-83
2021/01/01 09:02:29;;;;;;;17.42;9.50;;;;;;;;;;5096769;28;20050;-84
2021/01/01 09:04:57;;;;;;;18.33;10.80;;;;;;;;;;5094442;28;20050;-87
2021/01/01 09:07:24;;;;;;;18.75;11.43;;;;;;;;;;5095192;28;20102;-84
2021/01/01 09:09:51;;;;;;;18.20;11.07;;;;;;;;;;5096257;28;20056;-84
2021/01/01 09:12:19;;;;;;;17.30;11.02;;;;;;;;;;5097074;28;20051;-84
2021/01/01 09:14:50;;;;;;;17.92;11.55;;;;;;;;;;5096807;28;20087;-84
2021/01/01 09:17:17;;;;;;;17.10;10.95;;;;;;;;;;5100868;28;20040;-85
2021/01/01 09:19:43;;;;;;;22.92;11.68;;;;;;;;;;5096861;28;20040;-85
2021/01/01 09:22:16;;;;;;;15.60;10.70;;;;;;;;;;5098509;28;20036;-86
2021/01/01 09:24:43;;;;;;;19.55;13.65;;;;;;;;;;5098981;28;20051;-86
2021/01/01 09:27:10;;;;;;;23.10;15.75;;;;;;;;;;5098177;28;20102;-86
2021/01/01 09:29:36;;;;;;;20.70;13.25;;;;;;;;;;5098687;28;20048;-85
2021/01/01 09:32:07;;;;;;;19.63;13.80;;;;;;;;;;5099507;28;20048;-85
2021/01/01 09:34:33;;;;;;;20.40;12.88;;;;;;;;;;5096722;28;20044;-86
2021/01/01 09:37:07;;;;;;;22.40;15.68;;;;;;;;;;5096184;28;20048;-86
2021/01/01 09:39:33;;;;;;;32.22;21.67;;;;;;;;;;5098227;28;20048;-86
2021/01/01 09:41:59;;;;;;;27.25;18.98;;;;;;;;;;5097893;28;20098;-85
2021/01/01 09:44:26;;;;;;;15.90;10.23;;;;;;;;;;5098190;28;20083;-85
2021/01/01 09:46:53;;;;;;;17.63;9.98;;;;;;;;;;5096456;28;20101;-88
2021/01/01 09:49:19;;;;;;;15.13;9.10;;;;;;;;;;5098826;28;20096;-85
2021/01/01 09:51:45;;;;;;;15.27;9.43;;;;;;;;;;5117961;28;20050;-85
2021/01/01 09:54:14;;;;;;;15.30;9.57;;;;;;;;;;5121284;28;20103;-85
2021/01/01 09:56:40;;;;;;;14.98;9.80;;;;;;;;;;5104293;28;20040;-84
2021/01/01 09:59:06;;;;;;;20.42;12.38;;;;;;;;;;5123908;27;20077;-85
2021/01/01 10:01:34;;;;;;;19.88;12.20;;;;;;;;;;5110377;28;20108;-84
2021/01/01 10:04:01;;;;;;;15.10;9.88;;;;;;;;;;5102646;28;20048;-84
2021/01/01 10:06:27;;;;;;;17.02;10.57;;;;;;;;;;5100683;28;20040;-84
2021/01/01 10:16:00;;;;;;;15.65;9.52;;;;;;;;;;5208595;22;20078;-88
2021/01/01 10:18:27;;;;;;;14.70;10.48;;;;;;;;;;5063968;28;20053;-85
2021/01/01 10:20:53;;;;;;;13.82;8.95;;;;;;;;;;5079400;28;20056;-87
2021/01/01 10:23:19;;;;;;;16.65;10.73;;;;;;;;;;5081735;28;20472;-85
2021/01/01 10:25:45;;;;;;;15.93;10.38;;;;;;;;;;5081842;28;20091;-87
2021/01/01 10:28:11;;;;;;;15.10;10.43;;;;;;;;;;5082011;28;20044;-85
2021/01/01 10:30:37;;;;;;;14.57;9.30;;;;;;;;;;5081210;28;20044;-85
2021/01/01 10:33:03;;;;;;;13.77;10.48;;;;;;;;;;5080679;28;20049;-84
2021/01/01 10:35:29;;;;;;;14.13;9.07;;;;;;;;;;5081620;28;20048;-85
2021/01/01 10:37:55;;;;;;;14.75;9.23;;;;;;;;;;5080416;28;20062;-86
2021/01/01 10:40:21;;;;;;;15.93;9.52;;;;;;;;;;5080415;28;20458;-87
2021/01/01 10:42:47;;;;;;;19.70;10.52;;;;;;;;;;5079362;28;20386;-84
2021/01/01 10:45:14;;;;;;;13.93;8.95;;;;;;;;;;5082052;28;20060;-85
2021/01/01 10:47:40;;;;;;;16.50;10.52;;;;;;;;;;5081137;28;20484;-86
2021/01/01 10:50:09;;;;;;;17.95;11.15;;;;;;;;;;5082438;28;20108;-86
2021/01/01 10:52:35;;;;;;;20.38;11.75;;;;;;;;;;5082006;28;20053;-85
2021/01/01 10:55:02;;;;;;;26.25;14.95;;;;;;;;;;5081216;28;20049;-87
2021/01/01 10:57:27;;;;;;;17.50;10.65;;;;;;;;;;5081640;28;20497;-87
2021/01/01 10:59:53;;;;;;;14.73;9.80;;;;;;;;;;5081372;28;20056;-87
2021/01/01 11:02:19;;;;;;;16.17;11.00;;;;;;;;;;5074271;28;20060;-85
2021/01/01 11:04:45;;;;;;;14.68;9.55;;;;;;;;;;5060340;28;20052;-85
2021/01/01 11:07:11;;;;;;;13.85;9.30;;;;;;;;;;5061806;28;20045;-85
2021/01/01 11:09:38;;;;;;;14.98;10.15;;;;;;;;;;5061050;28;20567;-85
2021/01/01 11:12:05;;;;;;;17.63;11.15;;;;;;;;;;5061942;28;20078;-85
2021/01/01 11:14:44;;;;;;;16.85;10.90;;;;;;;;;;5060295;28;20045;-85
2021/01/01 12:23:34;;;;;;;19.05;11.00;;;;;;;;;;5003790;28;20547;-85
2021/01/01 12:26:00;;;;;;;15.40;10.27;;;;;;;;;;5053698;28;20045;-85
2021/01/01 12:28:26;;;;;;;14.90;9.98;;;;;;;;;;5067731;28;20099;-85
2021/01/01 12:30:53;;;;;;;16.38;10.55;;;;;;;;;;5074376;28;20401;-85
2021/01/01 12:33:20;;;;;;;17.35;11.00;;;;;;;;;;5077809;28;20049;-85
2021/01/01 12:35:46;;;;;;;18.83;11.52;;;;;;;;;;5067922;28;20052;-85
2021/01/01 12:38:12;;;;;;;15.73;10.38;;;;;;;;;;5075405;28;20072;-85
2021/01/01 12:40:37;;;;;;;19.50;12.70;;;;;;;;;;5076164;28;20055;-85
2021/01/01 12:43:04;;;;;;;29.05;17.98;;;;;;;;;;5069877;28;20100;-85
2021/01/01 12:45:30;;;;;;;21.70;14.85;;;;;;;;;;5061887;28;20117;-85
2021/01/01 12:47:57;;;;;;;24.85;14.20;;;;;;;;;;5059038;28;20048;-85
2021/01/01 12:50:24;;;;;;;21.52;13.25;;;;;;;;;;5062023;28;20041;-85
2021/01/01 12:52:51;;;;;;;21.42;13.35;;;;;;;;;;5067350;28;20055;-85
2021/01/01 12:55:17;;;;;;;24.40;15.02;;;;;;;;;;5075379;28;20052;-85
2021/01/01 12:57:43;;;;;;;26.13;15.05;;;;;;;;;;5080330;28;20049;-84
2021/01/01 13:00:10;;;;;;;24.98;15.57;;;;;;;;;;5060818;28;20059;-85
2021/01/01 13:02:36;;;;;;;22.55;14.77;;;;;;;;;;5062541;28;20049;-85
2021/01/01 13:05:04;;;;;;;20.10;12.77;;;;;;;;;;5063653;28;20057;-85
2021/01/01 13:07:30;;;;;;;26.88;17.83;;;;;;;;;;5063140;28;20103;-85
2021/01/01 13:09:58;;;;;;;30.30;16.55;;;;;;;;;;5075197;28;20489;-85
2021/01/01 13:12:24;;;;;;;28.25;13.73;;;;;;;;;;5074363;28;20049;-84
2021/01/01 13:14:50;;;;;;;24.55;16.80;;;;;;;;;;5059372;28;20045;-85
2021/01/01 13:17:16;;;;;;;27.27;17.08;;;;;;;;;;5058732;28;20107;-85
2021/01/01 13:19:42;;;;;;;25.02;17.15;;;;;;;;;;5071065;28;20102;-85
2021/01/01 13:22:09;;;;;;;33.13;18.90;;;;;;;;;;5076722;28;20057;-85
2021/01/01 13:24:35;;;;;;;25.10;15.48;;;;;;;;;;5052135;28;20047;-85
2021/01/01 13:27:00;;;;;;;24.88;15.25;;;;;;;;;;5064589;28;20045;-85
2021/01/01 13:29:27;;;;;;;23.98;14.55;;;;;;;;;;5065240;28;20049;-85
2021/01/01 13:31:52;;;;;;;23.35;14.48;;;;;;;;;;5065046;28;20045;-85
2021/01/01 13:34:19;;;;;;;23.85;15.20;;;;;;;;;;5062103;28;20057;-85
2021/01/01 13:36:45;;;;;;;21.35;14.65;;;;;;;;;;5065330;28;20045;-85
2021/01/01 13:39:12;;;;;;;21.83;14.50;;;;;;;;;;5055708;28;20056;-85
2021/01/01 13:41:39;;;;;;;22.98;14.60;;;;;;;;;;5062483;28;20112;-85
2021/01/01 13:44:06;;;;;;;24.52;14.50;;;;;;;;;;5060907;28;20053;-85
2021/01/01 13:46:34;;;;;;;21.10;14.65;;;;;;;;;;5059897;28;20063;-85
2021/01/01 13:49:00;;;;;;;23.83;14.77;;;;;;;;;;5064071;28;20110;-86
2021/01/01 13:51:27;;;;;;;35.55;26.65;;;;;;;;;;5063829;28;20067;-85
2021/01/01 13:53:53;;;;;;;28.10;20.65;;;;;;;;;;5077515;28;20485;-85
2021/01/01 13:56:20;;;;;;;25.63;17.92;;;;;;;;;;5083301;28;20048;-84
2021/01/01 13:58:46;;;;;;;26.48;18.42;;;;;;;;;;5082762;28;20056;-84
2021/01/01 14:01:15;;;;;;;29.33;17.98;;;;;;;;;;5083507;28;20082;-84
2021/01/01 14:03:41;;;;;;;25.38;17.38;;;;;;;;;;5061921;28;20432;-85
2021/01/01 14:06:08;;;;;;;27.58;17.40;;;;;;;;;;5064745;28;20060;-85
2021/01/01 14:08:35;;;;;;;23.67;15.23;;;;;;;;;;5072924;28;20048;-85
2021/01/01 14:11:01;;;;;;;22.90;14.70;;;;;;;;;;5070764;28;20047;-84
2021/01/01 14:13:30;;;;;;;25.52;14.77;;;;;;;;;;5076647;28;20540;-84
2021/01/01 14:15:56;;;;;;;25.83;16.10;;;;;;;;;;5065253;28;20045;-85
2021/01/01 14:18:22;;;;;;;25.77;15.25;;;;;;;;;;5066509;28;20052;-84
2021/01/01 14:20:48;;;;;;;23.80;14.13;;;;;;;;;;5081856;28;20044;-84
2021/01/01 14:23:14;;;;;;;25.10;15.65;;;;;;;;;;5082056;28;20045;-85
2021/01/01 14:25:40;;;;;;;23.00;15.93;;;;;;;;;;5081785;28;20052;-84
2021/01/01 14:28:07;;;;;;;28.25;16.73;;;;;;;;;;5071651;28;20057;-85
2021/01/01 14:30:35;;;;;;;28.80;17.60;;;;;;;;;;5062547;28;20053;-84
2021/01/01 14:33:01;;;;;;;28.40;16.50;;;;;;;;;;5062576;28;20045;-84
2021/01/01 14:35:27;;;;;;;28.25;17.55;;;;;;;;;;5062360;28;20053;-84
2021/01/01 14:37:54;;;;;;;23.67;15.93;;;;;;;;;;5063206;28;20045;-84
2021/01/01 14:40:20;;;;;;;25.70;17.05;;;;;;;;;;5065376;28;20052;-84
2021/01/01 14:42:46;;;;;;;29.73;17.42;;;;;;;;;;5066502;28;20404;-84
2021/01/01 14:45:12;;;;;;;27.02;17.42;;;;;;;;;;5060638;28;20069;-84
2021/01/01 14:47:42;;;;;;;28.30;18.38;;;;;;;;;;5061045;28;20052;-84
2021/01/01 14:50:10;;;;;;;30.13;18.00;;;;;;;;;;5041470;28;20080;-84
2021/01/01 14:52:36;;;;;;;29.73;18.30;;;;;;;;;;5069200;28;20074;-84
2021/01/01 14:55:02;;;;;;;29.77;18.70;;;;;;;;;;5063547;28;20049;-85
2021/01/01 14:57:29;;;;;;;31.90;17.83;;;;;;;;;;5075076;28;20405;-84
2021/01/01 14:59:55;;;;;;;27.80;17.42;;;;;;;;;;5060559;28;20073;-84
2021/01/01 15:02:21;;;;;;;32.80;19.17;;;;;;;;;;5062277;28;20539;-85
2021/01/01 15:04:48;;;;;;;31.42;18.95;;;;;;;;;;5060844;28;20049;-85
2021/01/01 15:07:14;;;;;;;36.05;19.42;;;;;;;;;;5060830;28;20052;-84
2021/01/01 15:09:40;;;;;;;32.47;20.23;;;;;;;;;;5073354;28;20053;-85
2021/01/01 15:12:06;;;;;;;31.80;20.08;;;;;;;;;;5081749;28;20056;-85
2021/01/01 15:14:32;;;;;;;34.83;22.13;;;;;;;;;;5081797;28;20060;-84
2021/01/01 15:16:58;;;;;;;34.42;22.33;;;;;;;;;;5065354;28;20060;-85
2021/01/01 15:19:24;;;;;;;38.05;23.17;;;;;;;;;;5068888;28;20400;-84
2021/01/01 15:21:51;;;;;;;37.65;22.05;;;;;;;;;;5061646;28;20059;-85
2021/01/01 15:24:18;;;;;;;39.33;23.60;;;;;;;;;;5061329;28;20119;-85
2021/01/01 15:26:44;;;;;;;39.25;22.65;;;;;;;;;;5066941;28;20071;-84
2021/01/01 15:29:10;;;;;;;40.63;23.85;;;;;;;;;;5064216;28;20044;-84
2021/01/01 15:31:36;;;;;;;39.92;23.27;;;;;;;;;;5075110;28;20051;-84
2021/01/01 15:34:03;;;;;;;43.25;25.30;;;;;;;;;;5080763;28;20060;-84
2021/01/01 15:36:29;;;;;;;34.80;21.30;;;;;;;;;;5074843;28;20481;-84
2021/01/01 15:38:56;;;;;;;47.08;24.83;;;;;;;;;;5066772;28;20044;-84
2021/01/01 15:41:22;;;;;;;42.78;23.85;;;;;;;;;;5059604;28;20056;-84
2021/01/01 15:43:48;;;;;;;41.35;24.30;;;;;;;;;;5059495;28;20044;-84